sensor_id;sensor_type;location;lat;lon;timestamp;pressure;altitude;pressure_sealevel;temperature;humidity
20077;BME280;12348;42.710;23.378;2022-11-20T00:02:19;94442.38;;;15.55;100.00
20077;BME280;12348;42.710;23.378;2022-11-20T00:04:46;94435.63;;;15.61;100.00
20077;BME280;12348;42.710;23.378;2022-11-20T00:07:14;94429.31;;;15.82;100.00
20077;BME280;12348;42.710;23.378;2022-11-20T00:09:40;94426.00;;;16.00;100.00
20077;BME280;12348;42.710;23.378;2022-11-20T00:12:07;94415.22;;;16.29;100.00
20077;BME280;12348;42.710;23.378;2022-11-20T00:14:34;94410.53;;;16.41;100.00
20077;BME280;12348;42.710;23.378;2022-11-20T00:17:01;94407.19;;;16.60;100.00
20077;BME280;12348;42.710;23.378;2022-11-20T00:19:28;94406.78;;;16.86;100.00
20077;BME280;12348;42.710;23.378;2022-11-20T00:21:55;94401.63;;;16.97;100.00
20077;BME280;12348;42.710;23.378;2022-11-20T00:24:23;94406.78;;;17.14;100.00
20077;BME280;12348;42.710;23.378;2022-11-20T00:26:49;94423.00;;;17.27;100.00
20077;BME280;12348;42.710;23.378;2022-11-20T00:29:16;94403.31;;;17.17;100.00
20077;BME280;12348;42.710;23.378;2022-11-20T00:31:43;94391.22;;;16.99;100.00
20077;BME280;12348;42.710;23.378;2022-11-20T00:34:10;94404.06;;;16.86;100.00
20077;BME280;12348;42.710;23.378;2022-11-20T00:36:36;94419.41;;;16.79;100.00
20077;BME280;12348;42.710;23.378;2022-11-20T00:39:03;94402.72;;;16.80;100.00
20077;BME280;12348;42.710;23.378;2022-11-20T00:41:31;94408.53;;;16.66;100.00
20077;BME280;12348;42.710;23.378;2022-11-20T00:43:58;94420.75;;;16.72;100.00
20077;BME280;12348;42.710;23.378;2022-11-20T00:46:27;94405.16;;;16.69;100.00
20077;BME280;12348;42.710;23.378;2022-11-20T00:48:54;94406.25;;;16.68;100.00
20077;BME280;12348;42.710;23.378;2022-11-20T00:51:22;94418.94;;;16.77;100.00
20077;BME280;12348;42.710;23.378;2022-11-20T00:53:50;94424.13;;;17.10;100.00
20077;BME280;12348;42.710;23.378;2022-11-20T00:56:18;94409.16;;;17.32;100.00
20077;BME280;12348;42.710;23.378;2022-11-20T00:58:48;94388.19;;;17.48;100.00
20077;BME280;12348;42.710;23.378;2022-11-20T01:01:16;94398.88;;;17.57;100.00
20077;BME280;12348;42.710;23.378;2022-11-20T01:03:45;94406.47;;;17.79;100.00
20077;BME280;12348;42.710;23.378;2022-11-20T01:06:14;94399.50;;;17.98;100.00
20077;BME280;12348;42.710;23.378;2022-11-20T01:08:41;94386.28;;;18.00;100.00
20077;BME280;12348;42.710;23.378;2022-11-20T01:11:10;94381.69;;;18.20;100.00
20077;BME280;12348;42.710;23.378;2022-11-20T01:13:38;94418.16;;;18.31;100.00
20077;BME280;12348;42.710;23.378;2022-11-20T01:16:08;94421.34;;;17.69;100.00
20077;BME280;12348;42.710;23.378;2022-11-20T01:18:35;94396.00;;;17.81;100.00
20077;BME280;12348;42.710;23.378;2022-11-20T01:21:03;94379.16;;;18.11;100.00
20077;BME280;12348;42.710;23.378;2022-11-20T01:23:31;94390.75;;;18.62;98.04
20077;BME280;12348;42.710;23.378;2022-11-20T01:26:00;94409.44;;;18.80;97.89
20077;BME280;12348;42.710;23.378;2022-11-20T01:28:28;94351.16;;;18.88;93.85
20077;BME280;12348;42.710;23.378;2022-11-20T01:30:55;94365.06;;;19.02;93.54
20077;BME280;12348;42.710;23.378;2022-11-20T01:33:23;94362.16;;;19.14;90.38
20077;BME280;12348;42.710;23.378;2022-11-20T01:35:50;94363.63;;;19.08;90.70
20077;BME280;12348;42.710;23.378;2022-11-20T01:38:17;94375.31;;;19.09;90.98
20077;BME280;12348;42.710;23.378;2022-11-20T01:40:45;94373.78;;;19.11;90.58
20077;BME280;12348;42.710;23.378;2022-11-20T01:43:16;94354.06;;;18.99;93.99
20077;BME280;12348;42.710;23.378;2022-11-20T01:46:13;94367.66;;;18.95;94.51
20077;BME280;12348;42.710;23.378;2022-11-20T01:48:46;94305.50;;;18.85;95.15
20077;BME280;12348;42.710;23.378;2022-11-20T01:51:21;94329.06;;;18.74;95.06
20077;BME280;12348;42.710;23.378;2022-11-20T01:53:49;94350.97;;;19.00;92.44
20077;BME280;12348;42.710;23.378;2022-11-20T01:56:18;94352.56;;;19.01;90.97
20077;BME280;12348;42.710;23.378;2022-11-20T01:58:48;94352.50;;;18.98;92.32
20077;BME280;12348;42.710;23.378;2022-11-20T02:01:17;94355.44;;;18.89;94.51
20077;BME280;12348;42.710;23.378;2022-11-20T02:03:45;94347.75;;;18.72;97.43
20077;BME280;12348;42.710;23.378;2022-11-20T02:06:17;94361.84;;;18.58;96.31
20077;BME280;12348;42.710;23.378;2022-11-20T02:08:45;94363.03;;;18.22;100.00
20077;BME280;12348;42.710;23.378;2022-11-20T02:11:12;94375.47;;;18.19;100.00
20077;BME280;12348;42.710;23.378;2022-11-20T02:13:39;94393.63;;;18.31;100.00
20077;BME280;12348;42.710;23.378;2022-11-20T02:16:10;94345.59;;;19.04;86.91
20077;BME280;12348;42.710;23.378;2022-11-20T02:18:38;94357.25;;;19.47;82.11
20077;BME280;12348;42.710;23.378;2022-11-20T02:21:15;94367.41;;;19.46;82.37
20077;BME280;12348;42.710;23.378;2022-11-20T02:24:00;94370.06;;;19.43;85.88
20077;BME280;12348;42.710;23.378;2022-11-20T02:26:28;94360.72;;;19.44;85.65
20077;BME280;12348;42.710;23.378;2022-11-20T02:28:55;94378.38;;;19.50;84.02
20077;BME280;12348;42.710;23.378;2022-11-20T02:31:23;94386.72;;;19.37;86.00
20077;BME280;12348;42.710;23.378;2022-11-20T02:33:54;94373.88;;;19.38;85.30
20077;BME280;12348;42.710;23.378;2022-11-20T02:36:21;94375.59;;;19.23;86.89
20077;BME280;12348;42.710;23.378;2022-11-20T02:38:49;94376.38;;;19.24;85.97
20077;BME280;12348;42.710;23.378;2022-11-20T02:41:17;94366.72;;;19.30;85.34
20077;BME280;12348;42.710;23.378;2022-11-20T02:43:44;94378.41;;;19.30;85.90
20077;BME280;12348;42.710;23.378;2022-11-20T02:46:11;94397.59;;;19.34;85.59
20077;BME280;12348;42.710;23.378;2022-11-20T02:48:37;94390.72;;;19.63;82.92
20077;BME280;12348;42.710;23.378;2022-11-20T02:51:04;94384.09;;;19.64;81.68
20077;BME280;12348;42.710;23.378;2022-11-20T02:53:31;94395.13;;;19.71;81.47
20077;BME280;12348;42.710;23.378;2022-11-20T02:55:58;94413.59;;;19.78;81.54
20077;BME280;12348;42.710;23.378;2022-11-20T02:58:26;94404.81;;;19.65;83.55
20077;BME280;12348;42.710;23.378;2022-11-20T03:00:53;94425.44;;;19.63;83.96
20077;BME280;12348;42.710;23.378;2022-11-20T03:03:19;94418.47;;;19.65;85.41
20077;BME280;12348;42.710;23.378;2022-11-20T03:05:46;94444.31;;;19.29;88.04
20077;BME280;12348;42.710;23.378;2022-11-20T03:08:13;94431.09;;;19.31;89.39
20077;BME280;12348;42.710;23.378;2022-11-20T03:10:40;94438.22;;;19.58;87.15
20077;BME280;12348;42.710;23.378;2022-11-20T03:13:06;94440.09;;;19.54;87.63
20077;BME280;12348;42.710;23.378;2022-11-20T03:15:35;94450.03;;;19.43;90.04
20077;BME280;12348;42.710;23.378;2022-11-20T03:18:02;94438.19;;;19.35;91.16
20077;BME280;12348;42.710;23.378;2022-11-20T03:20:29;94438.31;;;19.20;92.82
20077;BME280;12348;42.710;23.378;2022-11-20T03:22:56;94437.94;;;19.21;93.45
20077;BME280;12348;42.710;23.378;2022-11-20T03:25:22;94441.41;;;19.41;91.56
20077;BME280;12348;42.710;23.378;2022-11-20T03:27:49;94453.47;;;19.40;91.22
20077;BME280;12348;42.710;23.378;2022-11-20T03:30:16;94457.59;;;19.30;92.64
20077;BME280;12348;42.710;23.378;2022-11-20T03:32:45;94463.84;;;19.31;91.68
20077;BME280;12348;42.710;23.378;2022-11-20T03:35:12;94466.25;;;19.13;93.15
20077;BME280;12348;42.710;23.378;2022-11-20T03:37:38;94454.47;;;19.09;94.75
20077;BME280;12348;42.710;23.378;2022-11-20T03:40:06;94453.00;;;19.15;92.65
20077;BME280;12348;42.710;23.378;2022-11-20T03:42:33;94451.38;;;19.10;92.56
20077;BME280;12348;42.710;23.378;2022-11-20T03:45:13;94458.66;;;19.26;90.95
20077;BME280;12348;42.710;23.378;2022-11-20T03:47:40;94462.19;;;19.26;90.80
20077;BME280;12348;42.710;23.378;2022-11-20T03:50:10;94458.84;;;19.13;93.01
20077;BME280;12348;42.710;23.378;2022-11-20T03:52:37;94463.28;;;19.02;93.64
20077;BME280;12348;42.710;23.378;2022-11-20T03:55:07;94453.38;;;19.13;93.46
20077;BME280;12348;42.710;23.378;2022-11-20T03:57:34;94457.41;;;19.00;95.50
20077;BME280;12348;42.710;23.378;2022-11-20T04:00:01;94443.34;;;18.98;94.85
20077;BME280;12348;42.710;23.378;2022-11-20T04:02:27;94432.69;;;18.93;95.15
20077;BME280;12348;42.710;23.378;2022-11-20T04:04:54;94446.22;;;18.86;95.81
20077;BME280;12348;42.710;23.378;2022-11-20T04:07:23;94459.50;;;18.87;94.65
20077;BME280;12348;42.710;23.378;2022-11-20T04:09:49;94452.25;;;18.95;94.43
20077;BME280;12348;42.710;23.378;2022-11-20T04:12:16;94449.44;;;18.92;94.75
20077;BME280;12348;42.710;23.378;2022-11-20T04:14:43;94457.75;;;18.99;93.55
20077;BME280;12348;42.710;23.378;2022-11-20T04:17:10;94465.81;;;18.92;94.48
20077;BME280;12348;42.710;23.378;2022-11-20T04:19:38;94469.69;;;18.91;93.67
20077;BME280;12348;42.710;23.378;2022-11-20T04:22:05;94470.78;;;18.86;94.73
20077;BME280;12348;42.710;23.378;2022-11-20T04:24:33;94472.13;;;19.15;93.04
20077;BME280;12348;42.710;23.378;2022-11-20T04:27:00;94466.44;;;19.04;93.22
20077;BME280;12348;42.710;23.378;2022-11-20T04:29:26;94468.53;;;19.11;91.86
20077;BME280;12348;42.710;23.378;2022-11-20T04:31:53;94454.31;;;19.02;90.88
20077;BME280;12348;42.710;23.378;2022-11-20T04:34:20;94458.91;;;18.98;91.27
20077;BME280;12348;42.710;23.378;2022-11-20T04:36:47;94461.78;;;18.85;92.69
20077;BME280;12348;42.710;23.378;2022-11-20T04:39:14;94463.00;;;18.88;93.52
20077;BME280;12348;42.710;23.378;2022-11-20T04:41:43;94460.06;;;19.16;90.56
20077;BME280;12348;42.710;23.378;2022-11-20T04:44:10;94481.38;;;18.91;93.55
20077;BME280;12348;42.710;23.378;2022-11-20T04:46:39;94481.53;;;18.79;94.99
20077;BME280;12348;42.710;23.378;2022-11-20T04:49:07;94459.78;;;18.66;97.04
20077;BME280;12348;42.710;23.378;2022-11-20T04:51:34;94457.34;;;18.61;97.99
20077;BME280;12348;42.710;23.378;2022-11-20T04:54:01;94440.78;;;18.70;97.87
20077;BME280;12348;42.710;23.378;2022-11-20T04:56:28;94444.63;;;18.85;96.13
20077;BME280;12348;42.710;23.378;2022-11-20T04:58:59;94446.84;;;18.99;95.07
20077;BME280;12348;42.710;23.378;2022-11-20T05:01:26;94435.09;;;18.95;93.75
20077;BME280;12348;42.710;23.378;2022-11-20T05:03:53;94441.81;;;18.81;95.28
20077;BME280;12348;42.710;23.378;2022-11-20T05:06:20;94446.41;;;18.77;95.29
20077;BME280;12348;42.710;23.378;2022-11-20T05:08:48;94435.88;;;18.76;96.05
20077;BME280;12348;42.710;23.378;2022-11-20T05:11:17;94433.44;;;18.55;99.67
20077;BME280;12348;42.710;23.378;2022-11-20T05:13:44;94423.63;;;18.50;100.00
20077;BME280;12348;42.710;23.378;2022-11-20T05:16:14;94422.31;;;18.44;100.00
20077;BME280;12348;42.710;23.378;2022-11-20T05:18:41;94415.44;;;18.50;99.31
20077;BME280;12348;42.710;23.378;2022-11-20T05:21:10;94426.06;;;18.55;99.92
20077;BME280;12348;42.710;23.378;2022-11-20T05:23:37;94426.28;;;18.47;100.00
20077;BME280;12348;42.710;23.378;2022-11-20T05:26:04;94428.75;;;18.36;100.00
20077;BME280;12348;42.710;23.378;2022-11-20T05:28:32;94443.13;;;18.17;100.00
20077;BME280;12348;42.710;23.378;2022-11-20T05:31:04;94421.91;;;17.91;100.00
20077;BME280;12348;42.710;23.378;2022-11-20T05:33:33;94420.94;;;17.67;100.00
20077;BME280;12348;42.710;23.378;2022-11-20T05:35:59;94432.53;;;17.64;100.00
20077;BME280;12348;42.710;23.378;2022-11-20T05:38:26;94429.53;;;17.54;100.00
20077;BME280;12348;42.710;23.378;2022-11-20T05:40:53;94449.38;;;17.38;100.00
20077;BME280;12348;42.710;23.378;2022-11-20T05:43:21;94455.06;;;17.33;100.00
20077;BME280;12348;42.710;23.378;2022-11-20T05:45:54;94448.19;;;17.24;100.00
20077;BME280;12348;42.710;23.378;2022-11-20T05:48:20;94452.88;;;17.39;100.00
20077;BME280;12348;42.710;23.378;2022-11-20T05:50:49;94447.69;;;17.34;100.00
20077;BME280;12348;42.710;23.378;2022-11-20T05:53:16;94455.41;;;17.48;100.00
20077;BME280;12348;42.710;23.378;2022-11-20T05:55:43;94442.09;;;17.58;100.00
20077;BME280;12348;42.710;23.378;2022-11-20T05:58:10;94456.25;;;17.48;100.00
20077;BME280;12348;42.710;23.378;2022-11-20T06:00:37;94450.25;;;17.58;100.00
20077;BME280;12348;42.710;23.378;2022-11-20T06:03:04;94449.13;;;17.59;100.00
20077;BME280;12348;42.710;23.378;2022-11-20T06:05:30;94463.81;;;17.71;100.00
20077;BME280;12348;42.710;23.378;2022-11-20T06:08:00;94440.31;;;17.66;100.00
20077;BME280;12348;42.710;23.378;2022-11-20T06:10:27;94465.91;;;17.77;100.00
20077;BME280;12348;42.710;23.378;2022-11-20T06:12:57;94456.25;;;17.80;100.00
20077;BME280;12348;42.710;23.378;2022-11-20T06:15:25;94453.16;;;17.65;100.00
20077;BME280;12348;42.710;23.378;2022-11-20T06:17:52;94467.78;;;17.89;100.00
20077;BME280;12348;42.710;23.378;2022-11-20T06:20:19;94458.19;;;17.95;100.00
20077;BME280;12348;42.710;23.378;2022-11-20T06:22:46;94445.72;;;17.94;100.00
20077;BME280;12348;42.710;23.378;2022-11-20T06:25:14;94437.38;;;17.87;100.00
20077;BME280;12348;42.710;23.378;2022-11-20T06:27:41;94441.94;;;17.83;100.00
20077;BME280;12348;42.710;23.378;2022-11-20T06:30:09;94441.25;;;17.86;100.00
20077;BME280;12348;42.710;23.378;2022-11-20T06:32:36;94454.47;;;18.19;100.00
20077;BME280;12348;42.710;23.378;2022-11-20T06:35:04;94433.94;;;18.06;100.00
20077;BME280;12348;42.710;23.378;2022-11-20T06:37:32;94448.97;;;17.84;100.00
20077;BME280;12348;42.710;23.378;2022-11-20T06:39:58;94453.34;;;17.73;100.00
20077;BME280;12348;42.710;23.378;2022-11-20T06:42:27;94438.56;;;17.74;100.00
20077;BME280;12348;42.710;23.378;2022-11-20T06:44:53;94446.31;;;18.03;100.00
20077;BME280;12348;42.710;23.378;2022-11-20T06:47:20;94460.56;;;18.12;100.00
20077;BME280;12348;42.710;23.378;2022-11-20T06:49:47;94442.00;;;18.02;100.00
20077;BME280;12348;42.710;23.378;2022-11-20T06:52:14;94456.69;;;17.98;100.00
20077;BME280;12348;42.710;23.378;2022-11-20T06:54:41;94458.53;;;18.09;100.00
20077;BME280;12348;42.710;23.378;2022-11-20T06:57:08;94452.31;;;17.93;100.00
20077;BME280;12348;42.710;23.378;2022-11-20T06:59:36;94466.19;;;18.04;100.00
20077;BME280;12348;42.710;23.378;2022-11-20T07:02:03;94470.13;;;18.06;100.00
20077;BME280;12348;42.710;23.378;2022-11-20T07:04:29;94477.09;;;18.04;100.00
20077;BME280;12348;42.710;23.378;2022-11-20T07:06:56;94463.53;;;18.07;100.00
20077;BME280;12348;42.710;23.378;2022-11-20T07:09:23;94460.28;;;18.02;100.00
20077;BME280;12348;42.710;23.378;2022-11-20T07:11:50;94465.81;;;17.74;100.00
20077;BME280;12348;42.710;23.378;2022-11-20T07:14:17;94464.00;;;17.93;100.00
20077;BME280;12348;42.710;23.378;2022-11-20T07:16:45;94478.47;;;18.13;100.00
20077;BME280;12348;42.710;23.378;2022-11-20T07:19:11;94478.13;;;17.99;100.00
20077;BME280;12348;42.710;23.378;2022-11-20T07:21:38;94482.63;;;17.91;100.00
20077;BME280;12348;42.710;23.378;2022-11-20T07:24:05;94481.50;;;17.92;100.00
20077;BME280;12348;42.710;23.378;2022-11-20T07:26:32;94470.75;;;17.84;100.00
20077;BME280;12348;42.710;23.378;2022-11-20T07:28:59;94480.59;;;17.88;100.00
20077;BME280;12348;42.710;23.378;2022-11-20T07:31:26;94475.78;;;17.98;100.00
20077;BME280;12348;42.710;23.378;2022-11-20T07:33:54;94471.97;;;18.02;100.00
20077;BME280;12348;42.710;23.378;2022-11-20T07:36:21;94462.75;;;18.07;100.00
20077;BME280;12348;42.710;23.378;2022-11-20T07:38:48;94465.84;;;18.05;100.00
20077;BME280;12348;42.710;23.378;2022-11-20T07:41:14;94471.19;;;18.02;100.00
20077;BME280;12348;42.710;23.378;2022-11-20T07:43:41;94489.59;;;17.89;100.00
20077;BME280;12348;42.710;23.378;2022-11-20T07:46:08;94494.03;;;18.13;100.00
20077;BME280;12348;42.710;23.378;2022-11-20T07:48:35;94486.66;;;18.13;100.00
20077;BME280;12348;42.710;23.378;2022-11-20T07:51:04;94486.38;;;18.18;100.00
20077;BME280;12348;42.710;23.378;2022-11-20T07:53:31;94489.47;;;18.17;100.00
20077;BME280;12348;42.710;23.378;2022-11-20T07:55:59;94487.91;;;18.00;100.00
20077;BME280;12348;42.710;23.378;2022-11-20T07:58:26;94489.72;;;17.96;100.00
20077;BME280;12348;42.710;23.378;2022-11-20T08:00:54;94481.56;;;17.96;100.00
20077;BME280;12348;42.710;23.378;2022-11-20T08:03:21;94496.16;;;18.04;100.00
20077;BME280;12348;42.710;23.378;2022-11-20T08:05:49;94484.53;;;18.07;100.00
20077;BME280;12348;42.710;23.378;2022-11-20T08:08:17;94481.31;;;18.01;100.00
20077;BME280;12348;42.710;23.378;2022-11-20T08:10:44;94476.09;;;17.96;100.00
20077;BME280;12348;42.710;23.378;2022-11-20T08:13:10;94480.50;;;17.85;100.00
20077;BME280;12348;42.710;23.378;2022-11-20T08:15:54;94475.41;;;17.83;100.00
20077;BME280;12348;42.710;23.378;2022-11-20T08:18:21;94480.22;;;18.22;100.00
20077;BME280;12348;42.710;23.378;2022-11-20T08:20:48;94463.38;;;18.16;100.00
20077;BME280;12348;42.710;23.378;2022-11-20T08:23:16;94476.03;;;18.08;100.00
20077;BME280;12348;42.710;23.378;2022-11-20T08:25:43;94470.59;;;18.08;100.00
20077;BME280;12348;42.710;23.378;2022-11-20T08:28:10;94464.06;;;18.13;100.00
20077;BME280;12348;42.710;23.378;2022-11-20T08:30:36;94456.47;;;18.22;100.00
20077;BME280;12348;42.710;23.378;2022-11-20T08:33:05;94448.84;;;18.28;100.00
20077;BME280;12348;42.710;23.378;2022-11-20T08:35:33;94457.97;;;18.35;100.00
20077;BME280;12348;42.710;23.378;2022-11-20T08:38:01;94468.41;;;18.49;100.00
20077;BME280;12348;42.710;23.378;2022-11-20T08:40:29;94481.34;;;18.36;100.00
20077;BME280;12348;42.710;23.378;2022-11-20T08:42:57;94475.63;;;18.26;100.00
20077;BME280;12348;42.710;23.378;2022-11-20T08:45:23;94467.38;;;18.38;100.00
20077;BME280;12348;42.710;23.378;2022-11-20T08:47:51;94466.16;;;18.20;100.00
20077;BME280;12348;42.710;23.378;2022-11-20T08:50:18;94468.75;;;17.97;100.00
20077;BME280;12348;42.710;23.378;2022-11-20T08:52:44;94478.34;;;17.62;100.00
20077;BME280;12348;42.710;23.378;2022-11-20T08:55:11;94498.53;;;17.45;100.00
20077;BME280;12348;42.710;23.378;2022-11-20T08:57:41;94517.66;;;17.33;100.00
20077;BME280;12348;42.710;23.378;2022-11-20T09:00:09;94511.13;;;17.22;100.00
20077;BME280;12348;42.710;23.378;2022-11-20T09:02:37;94510.59;;;17.16;100.00
20077;BME280;12348;42.710;23.378;2022-11-20T09:05:04;94504.19;;;17.25;100.00
20077;BME280;12348;42.710;23.378;2022-11-20T09:07:31;94502.63;;;17.24;100.00
20077;BME280;12348;42.710;23.378;2022-11-20T09:09:58;94512.72;;;17.23;100.00
20077;BME280;12348;42.710;23.378;2022-11-20T09:12:25;94501.84;;;17.23;100.00
20077;BME280;12348;42.710;23.378;2022-11-20T09:14:53;94496.59;;;17.30;100.00
20077;BME280;12348;42.710;23.378;2022-11-20T09:17:20;94501.34;;;17.33;100.00
20077;BME280;12348;42.710;23.378;2022-11-20T09:19:46;94521.47;;;17.44;100.00
20077;BME280;12348;42.710;23.378;2022-11-20T09:22:13;94510.69;;;17.48;100.00
20077;BME280;12348;42.710;23.378;2022-11-20T09:24:40;94506.59;;;17.26;100.00
20077;BME280;12348;42.710;23.378;2022-11-20T09:27:08;94520.22;;;17.14;100.00
20077;BME280;12348;42.710;23.378;2022-11-20T09:29:34;94505.09;;;17.01;100.00
20077;BME280;12348;42.710;23.378;2022-11-20T09:32:03;94524.38;;;16.95;100.00
20077;BME280;12348;42.710;23.378;2022-11-20T09:34:30;94515.25;;;16.76;100.00
20077;BME280;12348;42.710;23.378;2022-11-20T09:36:57;94517.97;;;16.63;100.00
20077;BME280;12348;42.710;23.378;2022-11-20T09:39:24;94501.69;;;16.51;100.00
20077;BME280;12348;42.710;23.378;2022-11-20T09:42:03;94501.69;;;16.39;100.00
20077;BME280;12348;42.710;23.378;2022-11-20T09:44:53;94499.06;;;16.55;100.00
20077;BME280;12348;42.710;23.378;2022-11-20T09:47:36;94474.72;;;16.58;100.00
20077;BME280;12348;42.710;23.378;2022-11-20T09:50:23;94482.78;;;16.55;100.00
20077;BME280;12348;42.710;23.378;2022-11-20T09:53:08;94475.63;;;16.50;100.00
20077;BME280;12348;42.710;23.378;2022-11-20T09:55:37;94482.19;;;16.49;100.00
20077;BME280;12348;42.710;23.378;2022-11-20T09:58:06;94476.88;;;16.53;100.00
20077;BME280;12348;42.710;23.378;2022-11-20T10:00:34;94472.94;;;16.38;100.00
20077;BME280;12348;42.710;23.378;2022-11-20T10:03:11;94477.63;;;16.65;100.00
20077;BME280;12348;42.710;23.378;2022-11-20T10:05:43;94460.34;;;16.45;100.00
20077;BME280;12348;42.710;23.378;2022-11-20T10:08:17;94466.63;;;16.21;100.00
20077;BME280;12348;42.710;23.378;2022-11-20T10:10:47;94459.53;;;15.80;100.00
20077;BME280;12348;42.710;23.378;2022-11-20T10:13:33;94465.28;;;15.66;100.00
20077;BME280;12348;42.710;23.378;2022-11-20T10:16:15;94464.59;;;15.69;100.00
20077;BME280;12348;42.710;23.378;2022-11-20T10:18:57;94455.84;;;15.64;100.00
20077;BME280;12348;42.710;23.378;2022-11-20T10:21:31;94451.47;;;15.71;100.00
20077;BME280;12348;42.710;23.378;2022-11-20T10:27:18;94415.47;;;15.62;100.00
20077;BME280;12348;42.710;23.378;2022-11-20T10:30:00;94386.91;;;15.77;100.00
20077;BME280;12348;42.710;23.378;2022-11-20T10:32:32;94379.06;;;15.63;100.00
20077;BME280;12348;42.710;23.378;2022-11-20T10:35:05;94421.78;;;15.42;100.00
20077;BME280;12348;42.710;23.378;2022-11-20T10:37:35;94433.09;;;15.44;100.00
20077;BME280;12348;42.710;23.378;2022-11-20T10:40:20;94431.53;;;15.55;100.00
20077;BME280;12348;42.710;23.378;2022-11-20T10:42:52;94436.28;;;15.58;100.00
20077;BME280;12348;42.710;23.378;2022-11-20T10:45:35;94437.34;;;15.66;100.00
20077;BME280;12348;42.710;23.378;2022-11-20T10:48:10;94450.56;;;15.67;100.00
20077;BME280;12348;42.710;23.378;2022-11-20T10:50:48;94451.03;;;15.69;100.00
20077;BME280;12348;42.710;23.378;2022-11-20T10:53:50;94455.19;;;15.79;100.00
20077;BME280;12348;42.710;23.378;2022-11-20T10:56:22;94463.81;;;15.69;100.00
20077;BME280;12348;42.710;23.378;2022-11-20T11:01:57;94444.03;;;15.23;100.00
20077;BME280;12348;42.710;23.378;2022-11-20T11:04:33;94464.25;;;15.13;100.00
20077;BME280;12348;42.710;23.378;2022-11-20T11:07:08;94455.25;;;15.00;100.00
20077;BME280;12348;42.710;23.378;2022-11-20T11:09:41;94482.81;;;14.90;100.00
20077;BME280;12348;42.710;23.378;2022-11-20T11:12:10;94502.34;;;14.75;100.00
20077;BME280;12348;42.710;23.378;2022-11-20T11:14:45;94508.78;;;14.49;100.00
20077;BME280;12348;42.710;23.378;2022-11-20T11:17:25;94507.47;;;14.47;100.00
20077;BME280;12348;42.710;23.378;2022-11-20T11:20:01;94497.75;;;13.95;100.00
20077;BME280;12348;42.710;23.378;2022-11-20T11:22:31;94503.66;;;13.89;100.00
20077;BME280;12348;42.710;23.378;2022-11-20T11:25:01;94505.97;;;13.69;100.00
20077;BME280;12348;42.710;23.378;2022-11-20T11:27:28;94514.22;;;14.11;100.00
20077;BME280;12348;42.710;23.378;2022-11-20T11:30:03;94501.94;;;13.84;100.00
20077;BME280;12348;42.710;23.378;2022-11-20T11:32:38;94494.44;;;13.90;100.00
20077;BME280;12348;42.710;23.378;2022-11-20T11:35:17;94505.72;;;13.53;100.00
20077;BME280;12348;42.710;23.378;2022-11-20T11:37:46;94521.31;;;13.56;100.00
20077;BME280;12348;42.710;23.378;2022-11-20T11:40:15;94512.31;;;13.82;100.00
20077;BME280;12348;42.710;23.378;2022-11-20T11:42:43;94493.72;;;13.72;100.00
20077;BME280;12348;42.710;23.378;2022-11-20T11:45:15;94509.31;;;13.66;100.00
20077;BME280;12348;42.710;23.378;2022-11-20T11:47:47;94511.34;;;13.87;100.00
20077;BME280;12348;42.710;23.378;2022-11-20T11:50:20;94506.81;;;13.99;100.00
20077;BME280;12348;42.710;23.378;2022-11-20T11:52:56;94515.81;;;13.74;100.00
20077;BME280;12348;42.710;23.378;2022-11-20T11:55:35;94517.22;;;13.42;100.00
20077;BME280;12348;42.710;23.378;2022-11-20T12:01:38;94514.50;;;13.42;100.00
20077;BME280;12348;42.710;23.378;2022-11-20T12:04:20;94497.84;;;13.14;100.00
20077;BME280;12348;42.710;23.378;2022-11-20T12:07:01;94499.78;;;12.78;100.00
20077;BME280;12348;42.710;23.378;2022-11-20T12:09:37;94495.81;;;12.93;100.00
20077;BME280;12348;42.710;23.378;2022-11-20T12:12:09;94497.06;;;12.87;100.00
20077;BME280;12348;42.710;23.378;2022-11-20T12:14:37;94506.47;;;12.81;100.00
20077;BME280;12348;42.710;23.378;2022-11-20T12:17:11;94489.00;;;12.78;100.00
20077;BME280;12348;42.710;23.378;2022-11-20T12:19:39;94492.59;;;13.08;100.00
20077;BME280;12348;42.710;23.378;2022-11-20T12:22:19;94504.88;;;12.97;100.00
20077;BME280;12348;42.710;23.378;2022-11-20T12:24:59;94502.44;;;13.30;100.00
20077;BME280;12348;42.710;23.378;2022-11-20T12:27:44;94511.69;;;13.03;100.00
20077;BME280;12348;42.710;23.378;2022-11-20T12:30:16;94501.84;;;13.07;100.00
20077;BME280;12348;42.710;23.378;2022-11-20T12:32:56;94507.41;;;13.11;100.00
20077;BME280;12348;42.710;23.378;2022-11-20T12:35:51;94514.56;;;12.98;100.00
20077;BME280;12348;42.710;23.378;2022-11-20T12:38:44;94517.75;;;12.74;100.00
20077;BME280;12348;42.710;23.378;2022-11-20T12:41:31;94489.16;;;12.82;100.00
20077;BME280;12348;42.710;23.378;2022-11-20T12:44:36;94465.78;;;12.69;100.00
20077;BME280;12348;42.710;23.378;2022-11-20T12:47:33;94441.81;;;12.58;100.00
20077;BME280;12348;42.710;23.378;2022-11-20T12:50:14;94429.88;;;12.51;100.00
20077;BME280;12348;42.710;23.378;2022-11-20T12:52:48;94433.06;;;12.35;100.00
20077;BME280;12348;42.710;23.378;2022-11-20T12:55:25;94446.91;;;12.51;100.00
20077;BME280;12348;42.710;23.378;2022-11-20T12:58:13;94454.50;;;12.49;100.00
20077;BME280;12348;42.710;23.378;2022-11-20T13:00:52;94452.59;;;12.50;100.00
20077;BME280;12348;42.710;23.378;2022-11-20T13:03:43;94453.56;;;12.45;100.00
20077;BME280;12348;42.710;23.378;2022-11-20T13:06:25;94453.91;;;12.44;100.00
20077;BME280;12348;42.710;23.378;2022-11-20T13:08:53;94449.91;;;12.50;100.00